createdAt,value
2019-01-11T00:00:49.759Z,5.17
2019-01-11T00:03:18.137Z,5.67
2019-01-11T00:05:46.551Z,5.80
2019-01-11T00:08:14.916Z,5.80
2019-01-11T00:10:43.396Z,5.50
2019-01-11T00:13:11.773Z,5.60
2019-01-11T00:15:40.180Z,5.57
2019-01-11T00:18:08.562Z,5.27
2019-01-11T00:20:36.974Z,5.30
2019-01-11T00:23:05.458Z,5.00
2019-01-11T00:25:33.840Z,4.77
2019-01-11T00:28:02.258Z,4.87
2019-01-11T00:30:30.635Z,4.57
2019-01-11T00:32:59.044Z,4.40
2019-01-11T00:35:27.491Z,4.27
2019-01-11T00:37:55.894Z,3.80
2019-01-11T00:40:24.274Z,3.97
2019-01-11T00:42:52.671Z,3.63
2019-01-11T00:45:21.041Z,4.47
2019-01-11T00:47:49.449Z,4.30
2019-01-11T00:50:17.857Z,4.87
2019-01-11T00:52:46.244Z,5.37
2019-01-11T00:55:14.656Z,5.83
2019-01-11T00:57:43.087Z,5.80
2019-01-11T01:00:17.482Z,6.13
2019-01-11T01:02:45.899Z,6.83
2019-01-11T01:05:14.359Z,6.90
2019-01-11T01:07:42.760Z,8.40
2019-01-11T01:10:11.217Z,10.17
2019-01-11T01:12:39.626Z,11.07
2019-01-11T01:15:10.491Z,12.13
2019-01-11T01:17:39.243Z,12.63
2019-01-11T01:20:17.472Z,13.40
2019-01-11T01:22:46.014Z,13.87
2019-01-11T01:25:14.420Z,12.77
2019-01-11T01:27:42.868Z,13.60
2019-01-11T01:30:14.582Z,13.90
2019-01-11T01:32:43.033Z,14.03
2019-01-11T01:35:11.513Z,15.27
2019-01-11T01:37:39.907Z,13.93
2019-01-11T01:40:11.258Z,13.77
2019-01-11T01:42:39.650Z,14.67
2019-01-11T01:45:11.384Z,14.83
2019-01-11T01:47:39.763Z,15.07
2019-01-11T01:50:10.220Z,15.10
2019-01-11T01:52:38.621Z,15.20
2019-01-11T01:55:10.330Z,15.60
2019-01-11T01:57:38.760Z,16.47
2019-01-11T02:00:10.446Z,16.10
2019-01-11T02:02:38.855Z,16.47
2019-01-11T02:05:09.124Z,17.27
2019-01-11T02:07:37.463Z,18.57
2019-01-11T02:10:09.099Z,17.43
2019-01-11T02:12:37.562Z,18.23
2019-01-11T02:15:07.503Z,18.87
2019-01-11T02:17:35.885Z,16.90
2019-01-11T02:20:07.195Z,16.60
2019-01-11T02:22:35.572Z,17.80
2019-01-11T02:25:05.131Z,16.63
2019-01-11T02:27:33.516Z,15.73
2019-01-11T02:30:02.023Z,16.53
2019-01-11T02:32:30.411Z,15.83
2019-01-11T02:34:58.794Z,16.00
2019-01-11T02:37:27.174Z,15.67
2019-01-11T02:39:55.578Z,15.37
2019-01-11T02:42:23.957Z,15.93
2019-01-11T02:44:52.361Z,16.47
2019-01-11T02:47:20.790Z,16.10
2019-01-11T02:49:49.168Z,15.83
2019-01-11T02:52:17.619Z,14.53
2019-01-11T02:54:45.981Z,17.67
2019-01-11T02:57:14.437Z,14.53
2019-01-11T02:59:42.840Z,15.47
2019-01-11T03:02:11.232Z,13.60
2019-01-11T03:04:39.606Z,12.43
2019-01-11T03:07:08.018Z,11.17
2019-01-11T03:09:36.400Z,8.00
2019-01-11T03:12:04.844Z,6.77
2019-01-11T03:14:33.240Z,6.53
2019-01-11T03:17:01.644Z,6.33
2019-01-11T03:19:30.098Z,6.60
2019-01-11T03:21:58.600Z,6.57
2019-01-11T03:24:26.993Z,6.90
2019-01-11T03:26:55.374Z,6.03
2019-01-11T03:29:23.778Z,4.70
2019-01-11T03:31:52.157Z,6.57
2019-01-11T03:34:20.590Z,5.90
2019-01-11T03:36:48.976Z,6.30
2019-01-11T03:39:17.383Z,6.07
2019-01-11T03:41:56.161Z,4.53
2019-01-11T03:44:24.531Z,3.70
2019-01-11T03:46:52.929Z,3.87
2019-01-11T03:49:21.364Z,4.53
2019-01-11T03:51:49.820Z,5.00
2019-01-11T03:54:18.545Z,4.03
2019-01-11T03:56:46.947Z,4.17
2019-01-11T03:59:15.343Z,4.57
2019-01-11T04:01:43.744Z,4.67
2019-01-11T04:04:12.131Z,4.50
2019-01-11T04:06:40.525Z,5.53
2019-01-11T04:09:09.901Z,6.00
2019-01-11T04:11:38.281Z,6.73
2019-01-11T04:14:06.671Z,6.90
2019-01-11T04:16:35.051Z,6.30
2019-01-11T04:19:05.091Z,6.97
2019-01-11T04:21:33.479Z,6.80
2019-01-11T04:24:01.894Z,6.30
2019-01-11T04:26:30.259Z,6.53
2019-01-11T04:28:58.679Z,5.93
2019-01-11T04:31:27.056Z,6.40
2019-01-11T04:33:55.471Z,5.47
2019-01-11T04:36:23.850Z,4.47
2019-01-11T04:38:52.243Z,4.50
2019-01-11T04:41:20.724Z,4.23
2019-01-11T04:43:49.122Z,3.40
2019-01-11T04:46:17.503Z,3.40
2019-01-11T04:48:46.286Z,2.70
2019-01-11T04:51:16.335Z,2.67
2019-01-11T04:53:44.815Z,2.70
2019-01-11T04:56:13.183Z,2.63
2019-01-11T04:58:41.581Z,2.73
2019-01-11T05:01:10.065Z,2.67
2019-01-11T05:03:38.487Z,2.77
2019-01-11T05:06:06.916Z,3.17
2019-01-11T05:08:35.313Z,3.67
2019-01-11T05:11:03.760Z,3.47
2019-01-11T05:13:33.776Z,3.93
2019-01-11T05:16:02.185Z,3.80
2019-01-11T05:18:30.560Z,3.50
2019-01-11T05:20:58.983Z,3.23
2019-01-11T05:23:27.540Z,3.27
2019-01-11T05:25:57.024Z,4.93
2019-01-11T05:28:25.771Z,7.23
2019-01-11T05:30:54.231Z,8.33
2019-01-11T05:33:22.920Z,9.13
2019-01-11T05:35:51.295Z,8.33
2019-01-11T05:38:19.754Z,9.60
2019-01-11T05:40:48.100Z,9.40
2019-01-11T05:43:16.512Z,9.33
2019-01-11T05:45:44.901Z,9.07
2019-01-11T05:48:13.284Z,8.70
2019-01-11T05:50:41.688Z,8.03
2019-01-11T05:53:10.122Z,8.23
2019-01-11T05:55:45.500Z,7.70
2019-01-11T05:58:24.565Z,7.50
2019-01-11T06:00:52.924Z,7.00
2019-01-11T06:03:21.303Z,8.10
2019-01-11T06:05:49.791Z,8.73
2019-01-11T06:08:19.135Z,7.90
2019-01-11T06:10:47.524Z,9.97
2019-01-11T06:13:15.928Z,7.33
2019-01-11T06:15:44.299Z,10.90
2019-01-11T06:18:12.718Z,9.53
2019-01-11T06:20:41.139Z,8.80
2019-01-11T06:23:09.583Z,9.33
2019-01-11T06:25:37.983Z,9.20
2019-01-11T06:28:06.369Z,8.63
2019-01-11T06:30:34.772Z,9.80
2019-01-11T06:33:03.164Z,9.20
2019-01-11T06:35:31.560Z,8.30
2019-01-11T06:37:59.957Z,8.17
2019-01-11T06:40:28.366Z,9.33
2019-01-11T06:42:56.758Z,8.77
2019-01-11T06:45:25.144Z,9.70
2019-01-11T06:47:53.530Z,9.10
2019-01-11T06:50:21.983Z,8.80
2019-01-11T06:52:50.371Z,8.93
2019-01-11T06:55:20.715Z,9.63
2019-01-11T06:57:49.139Z,9.87
2019-01-11T07:00:18.046Z,9.77
2019-01-11T07:02:46.439Z,9.83
2019-01-11T07:05:14.905Z,9.07
2019-01-11T07:07:43.306Z,9.27
2019-01-11T07:10:14.948Z,9.50
2019-01-11T07:12:43.429Z,9.13
2019-01-11T07:15:13.114Z,8.33
2019-01-11T07:17:41.482Z,10.07
2019-01-11T07:20:12.795Z,8.40
2019-01-11T07:22:41.179Z,9.10
2019-01-11T07:25:11.922Z,9.50
2019-01-11T07:27:41.971Z,8.60
2019-01-11T07:30:15.212Z,9.07
2019-01-11T07:32:43.618Z,8.17
2019-01-11T07:35:12.011Z,7.97
2019-01-11T07:37:40.406Z,8.90
2019-01-11T07:40:11.594Z,10.23
2019-01-11T07:42:39.994Z,9.47
2019-01-11T07:45:11.680Z,9.83
2019-01-11T07:47:40.052Z,7.83
2019-01-11T07:50:09.647Z,7.90
2019-01-11T07:52:38.043Z,7.73
2019-01-11T07:55:08.375Z,8.27
2019-01-11T07:57:36.797Z,8.23
2019-01-11T08:00:10.349Z,7.03
2019-01-11T08:02:38.795Z,7.13
2019-01-11T08:05:07.568Z,7.87
2019-01-11T08:07:35.970Z,7.23
2019-01-11T08:10:07.667Z,6.83
2019-01-11T08:12:36.067Z,6.83
2019-01-11T08:15:07.596Z,7.63
2019-01-11T08:17:35.991Z,6.70
2019-01-11T08:20:05.620Z,6.33
2019-01-11T08:22:35.646Z,5.63
2019-01-11T08:25:04.857Z,6.73
2019-01-11T08:27:33.240Z,6.07
2019-01-11T08:30:01.643Z,6.60
2019-01-11T08:32:30.049Z,5.53
2019-01-11T08:34:58.431Z,5.90
2019-01-11T08:37:26.833Z,5.63
2019-01-11T08:39:55.258Z,5.77
2019-01-11T08:42:23.640Z,5.03
2019-01-11T08:44:52.023Z,5.50
2019-01-11T08:47:20.444Z,5.53
2019-01-11T08:49:48.917Z,4.93
2019-01-11T08:52:17.360Z,4.77
2019-01-11T08:54:45.768Z,4.73
2019-01-11T08:57:14.179Z,4.47
2019-01-11T08:59:42.557Z,5.53
2019-01-11T09:02:10.977Z,5.60
2019-01-11T09:04:39.354Z,5.63
2019-01-11T09:07:07.756Z,5.53
2019-01-11T09:09:36.141Z,5.07
2019-01-11T09:12:04.622Z,4.80
2019-01-11T09:14:48.774Z,4.97
2019-01-11T09:17:17.475Z,4.87
2019-01-11T09:19:45.856Z,4.93
2019-01-11T09:22:14.290Z,5.87
2019-01-11T09:24:42.706Z,5.63
2019-01-11T09:27:11.081Z,4.20
2019-01-11T09:29:39.484Z,4.90
2019-01-11T09:32:07.902Z,4.77
2019-01-11T09:34:36.282Z,4.80
2019-01-11T09:37:04.689Z,4.57
2019-01-11T09:39:33.089Z,4.43
2019-01-11T09:42:01.447Z,3.83
2019-01-11T09:44:29.844Z,3.77
2019-01-11T09:46:58.226Z,3.57
2019-01-11T09:49:26.629Z,4.47
2019-01-11T09:51:55.034Z,3.90
2019-01-11T09:54:23.425Z,4.00
2019-01-11T09:56:51.835Z,2.90
2019-01-11T09:59:20.216Z,3.20
2019-01-11T10:01:50.332Z,3.10
2019-01-11T10:04:20.360Z,2.37
2019-01-11T10:06:50.399Z,2.83
2019-01-11T10:09:18.819Z,3.20
2019-01-11T10:11:47.224Z,2.77
2019-01-11T10:14:15.636Z,2.77
2019-01-11T10:16:44.011Z,2.50
2019-01-11T10:19:12.378Z,2.80
2019-01-11T10:21:40.790Z,2.80
2019-01-11T10:24:09.207Z,3.10
2019-01-11T10:26:37.569Z,3.03
2019-01-11T10:29:05.973Z,3.07
2019-01-11T10:31:34.345Z,3.10
2019-01-11T10:34:02.747Z,3.17
2019-01-11T10:36:31.129Z,3.33
2019-01-11T10:38:59.522Z,3.30
2019-01-11T10:41:27.924Z,3.03
2019-01-11T10:43:56.327Z,3.13
2019-01-11T10:46:29.493Z,3.37
2019-01-11T10:48:57.850Z,3.30
2019-01-11T10:51:28.245Z,3.10
2019-01-11T10:53:56.282Z,2.67
2019-01-11T10:56:24.687Z,3.30
2019-01-11T10:58:53.103Z,2.90
2019-01-11T11:01:21.489Z,2.67
2019-01-11T11:03:49.878Z,2.60
2019-01-11T11:06:18.284Z,3.63
2019-01-11T11:08:46.685Z,3.27
2019-01-11T11:11:16.729Z,3.80
2019-01-11T11:13:45.357Z,4.17
2019-01-11T11:16:13.921Z,3.90
2019-01-11T11:18:42.306Z,3.47
2019-01-11T11:21:10.737Z,3.67
2019-01-11T11:23:39.152Z,2.87
2019-01-11T11:26:07.546Z,3.23
2019-01-11T11:28:35.966Z,2.87
2019-01-11T11:31:04.346Z,2.83
2019-01-11T11:33:32.715Z,2.57
2019-01-11T11:36:01.111Z,2.17
2019-01-11T11:38:29.481Z,2.70
2019-01-11T11:40:57.870Z,2.63
2019-01-11T11:43:26.356Z,3.13
2019-01-11T11:45:54.687Z,3.37
2019-01-11T11:48:23.092Z,2.83
2019-01-11T11:50:51.475Z,3.07
2019-01-11T11:53:19.858Z,2.50
2019-01-11T11:55:48.262Z,3.13
2019-01-11T11:58:16.667Z,3.13
2019-01-11T12:00:45.058Z,3.60
2019-01-11T12:03:13.526Z,3.67
2019-01-11T12:05:41.931Z,3.27
2019-01-11T12:08:10.382Z,3.43
2019-01-11T12:10:38.801Z,2.73
2019-01-11T12:13:07.210Z,3.17
2019-01-11T12:15:35.591Z,3.07
2019-01-11T12:18:04.015Z,2.60
2019-01-11T12:20:32.469Z,2.87
2019-01-11T12:23:00.886Z,3.37
2019-01-11T12:25:29.273Z,3.03
2019-01-11T12:27:57.683Z,3.00
2019-01-11T12:30:26.078Z,3.33
2019-01-11T12:32:54.450Z,3.40
2019-01-11T12:35:22.854Z,3.40
2019-01-11T12:37:51.240Z,3.83
2019-01-11T12:40:19.656Z,2.80
2019-01-11T12:42:48.069Z,3.80
2019-01-11T12:45:16.811Z,3.50
2019-01-11T12:47:45.219Z,3.17
2019-01-11T12:50:16.418Z,4.47
2019-01-11T12:52:44.829Z,3.30
2019-01-11T12:55:13.270Z,3.90
2019-01-11T12:57:41.688Z,3.57
2019-01-11T13:00:13.010Z,3.90
2019-01-11T13:02:41.417Z,3.07
2019-01-11T13:05:11.844Z,3.70
2019-01-11T13:07:40.253Z,3.43
2019-01-11T13:10:14.143Z,3.70
2019-01-11T13:12:42.468Z,3.80
2019-01-11T13:15:13.325Z,3.67
2019-01-11T13:17:41.715Z,3.37
2019-01-11T13:20:12.470Z,3.83
2019-01-11T13:22:40.845Z,3.10
2019-01-11T13:25:12.056Z,3.87
2019-01-11T13:27:40.442Z,2.53
2019-01-11T13:30:17.057Z,3.30
2019-01-11T13:32:45.493Z,3.00
2019-01-11T13:35:13.936Z,3.40
2019-01-11T13:37:42.379Z,2.40
2019-01-11T13:40:19.505Z,3.10
2019-01-11T13:42:47.910Z,2.53
2019-01-11T13:45:16.363Z,3.67
2019-01-11T13:47:44.745Z,2.60
2019-01-11T13:50:22.570Z,3.00
2019-01-11T13:52:50.949Z,2.53
2019-01-11T13:55:19.362Z,3.17
2019-01-11T13:57:47.765Z,3.30
2019-01-11T14:00:16.155Z,3.03
2019-01-11T14:02:44.552Z,3.17
2019-01-11T14:05:12.927Z,3.47
2019-01-11T14:07:41.313Z,3.13
2019-01-11T14:10:10.562Z,2.47
2019-01-11T14:12:38.939Z,2.57
2019-01-11T14:15:09.501Z,2.90
2019-01-11T14:17:37.879Z,2.67
2019-01-11T14:20:09.124Z,2.77
2019-01-11T14:22:37.494Z,2.43
2019-01-11T14:25:07.906Z,2.50
2019-01-11T14:27:36.307Z,2.70
2019-01-11T14:30:13.386Z,3.13
2019-01-11T14:32:41.752Z,2.23
2019-01-11T14:35:10.179Z,2.37
2019-01-11T14:37:38.576Z,3.10
2019-01-11T14:40:11.846Z,2.90
2019-01-11T14:42:40.269Z,3.27
2019-01-11T14:45:11.719Z,2.37
2019-01-11T14:47:40.090Z,2.50
2019-01-11T14:50:16.284Z,2.73
2019-01-11T14:52:44.927Z,2.63
2019-01-11T14:55:13.316Z,2.13
2019-01-11T14:57:41.707Z,2.30
2019-01-11T15:00:18.798Z,2.63
2019-01-11T15:02:48.266Z,2.60
2019-01-11T15:05:17.599Z,2.70
2019-01-11T15:07:46.053Z,2.60
2019-01-11T15:10:15.450Z,2.37
2019-01-11T15:12:44.591Z,3.30
2019-01-11T15:15:12.991Z,2.83
2019-01-11T15:17:41.380Z,3.40
2019-01-11T15:20:12.899Z,3.27
2019-01-11T15:22:41.275Z,3.20
2019-01-11T15:25:10.725Z,2.63
2019-01-11T15:27:39.103Z,3.30
2019-01-11T15:30:15.666Z,3.07
2019-01-11T15:32:44.053Z,3.27
2019-01-11T15:35:12.467Z,3.37
2019-01-11T15:37:40.919Z,3.07
2019-01-11T15:40:23.469Z,3.77
2019-01-11T15:42:51.948Z,3.30
2019-01-11T15:45:20.372Z,3.33
2019-01-11T15:47:48.835Z,3.13
2019-01-11T15:50:37.330Z,4.20
2019-01-11T15:53:05.722Z,2.97
2019-01-11T15:55:34.114Z,3.20
2019-01-11T15:58:02.511Z,3.17
2019-01-11T16:00:30.891Z,4.00
2019-01-11T16:02:59.292Z,3.60
2019-01-11T16:05:27.678Z,4.10
2019-01-11T16:07:56.075Z,3.53
2019-01-11T16:10:24.480Z,3.10
2019-01-11T16:12:52.944Z,3.90
2019-01-11T16:15:42.745Z,3.17
2019-01-11T16:18:14.439Z,2.23
2019-01-11T16:20:42.810Z,2.90
2019-01-11T16:23:11.223Z,2.70
2019-01-11T16:25:39.658Z,2.57
2019-01-11T16:28:08.306Z,2.60
2019-01-11T16:30:37.205Z,2.50
2019-01-11T16:33:05.553Z,3.20
2019-01-11T16:35:33.963Z,3.00
2019-01-11T16:38:02.350Z,3.67
2019-01-11T16:40:30.745Z,3.13
2019-01-11T16:42:59.138Z,3.70
2019-01-11T16:45:27.603Z,3.47
2019-01-11T16:47:56.016Z,3.40
2019-01-11T16:50:24.433Z,3.50
2019-01-11T16:52:52.821Z,3.40
2019-01-11T16:55:21.211Z,3.80
2019-01-11T16:57:49.648Z,3.53
2019-01-11T17:00:19.510Z,3.87
2019-01-11T17:02:48.139Z,3.23
2019-01-11T17:05:16.675Z,3.47
2019-01-11T17:07:45.136Z,3.37
2019-01-11T17:10:13.556Z,3.10
2019-01-11T17:12:42.198Z,3.27
2019-01-11T17:15:13.834Z,3.43
2019-01-11T17:17:42.232Z,3.00
2019-01-11T17:20:13.842Z,3.90
2019-01-11T17:22:42.243Z,3.57
2019-01-11T17:25:10.661Z,3.60
2019-01-11T17:27:39.034Z,2.67
2019-01-11T17:30:13.423Z,3.23
2019-01-11T17:32:41.856Z,2.30
2019-01-11T17:35:10.187Z,2.80
2019-01-11T17:37:38.605Z,1.87
2019-01-11T17:40:09.231Z,1.67
2019-01-11T17:42:37.644Z,1.43
2019-01-11T17:45:08.457Z,1.10
2019-01-11T17:47:36.850Z,1.10
2019-01-11T17:50:08.626Z,1.20
2019-01-11T17:52:37.044Z,1.10
2019-01-11T17:55:05.821Z,1.47
2019-01-11T17:57:34.224Z,1.30
2019-01-11T18:00:02.755Z,1.17
2019-01-11T18:02:31.134Z,1.70
2019-01-11T18:04:59.511Z,1.57
2019-01-11T18:07:27.995Z,1.70
2019-01-11T18:09:56.375Z,1.93
2019-01-11T18:12:24.824Z,1.67
2019-01-11T18:14:53.206Z,2.00
2019-01-11T18:17:21.598Z,1.80
2019-01-11T18:19:49.984Z,2.13
2019-01-11T18:22:18.377Z,2.10
2019-01-11T18:24:46.836Z,2.27
2019-01-11T18:27:15.227Z,1.90
2019-01-11T18:29:43.600Z,1.40
2019-01-11T18:32:12.156Z,1.00
2019-01-11T18:34:40.569Z,0.83
2019-01-11T18:37:09.021Z,1.17
2019-01-11T18:39:37.400Z,1.30
2019-01-11T18:42:05.807Z,1.20
2019-01-11T18:44:34.206Z,1.60
2019-01-11T18:47:02.655Z,1.23
2019-01-11T18:49:31.063Z,1.03
2019-01-11T18:51:59.547Z,0.90
2019-01-11T18:54:27.899Z,0.80
2019-01-11T18:56:56.414Z,1.27
2019-01-11T18:59:24.867Z,0.80
2019-01-11T19:01:53.252Z,1.47
2019-01-11T19:04:21.656Z,1.60
2019-01-11T19:06:50.040Z,1.20
2019-01-11T19:09:18.438Z,1.00
2019-01-11T19:11:46.979Z,1.20
2019-01-11T19:14:15.443Z,1.47
2019-01-11T19:16:43.861Z,1.10
2019-01-11T19:19:12.240Z,1.50
2019-01-11T19:21:40.652Z,1.73
2019-01-11T19:24:09.033Z,1.33
2019-01-11T19:26:37.438Z,1.63
2019-01-11T19:29:05.845Z,2.17
2019-01-11T19:31:34.302Z,1.50
2019-01-11T19:34:02.751Z,1.90
2019-01-11T19:36:31.149Z,2.07
2019-01-11T19:38:59.536Z,2.13
2019-01-11T19:41:27.973Z,1.87
2019-01-11T19:43:56.388Z,1.70
2019-01-11T19:46:24.769Z,1.90
2019-01-11T19:48:53.175Z,2.60
2019-01-11T19:51:21.551Z,1.30
2019-01-11T19:53:49.950Z,1.67
2019-01-11T19:56:18.333Z,1.50
2019-01-11T19:58:46.750Z,2.20
2019-01-11T20:01:15.201Z,2.07
2019-01-11T20:03:43.552Z,1.47
2019-01-11T20:06:12.021Z,1.53
2019-01-11T20:08:40.491Z,1.27
2019-01-11T20:11:08.904Z,1.40
2019-01-11T20:13:37.280Z,1.33
2019-01-11T20:16:05.642Z,1.40
2019-01-11T20:18:34.039Z,1.10
2019-01-11T20:21:02.423Z,1.13
2019-01-11T20:23:34.779Z,1.20
2019-01-11T20:26:00.863Z,1.17
2019-01-11T20:28:29.276Z,1.20
2019-01-11T20:30:57.685Z,2.00
2019-01-11T20:33:26.083Z,1.77
2019-01-11T20:35:54.482Z,1.50
2019-01-11T20:38:22.873Z,1.93
2019-01-11T20:40:51.339Z,1.80
2019-01-11T20:43:19.719Z,2.00
2019-01-11T20:45:48.107Z,1.50
2019-01-11T20:48:16.536Z,2.50
2019-01-11T20:50:44.904Z,1.67
2019-01-11T20:53:13.366Z,1.67
2019-01-11T20:55:41.759Z,2.43
2019-01-11T20:58:10.156Z,1.60
2019-01-11T21:00:38.585Z,1.50
2019-01-11T21:03:06.930Z,1.60
2019-01-11T21:05:35.334Z,1.80
2019-01-11T21:08:03.730Z,1.60
2019-01-11T21:10:32.098Z,1.10
2019-01-11T21:13:00.490Z,1.00
2019-01-11T21:15:28.881Z,1.20
2019-01-11T21:17:57.270Z,1.00
2019-01-11T21:20:26.315Z,1.27
2019-01-11T21:22:54.868Z,1.40
2019-01-11T21:25:23.265Z,1.47
2019-01-11T21:27:51.631Z,1.30
2019-01-11T21:30:25.792Z,1.40
2019-01-11T21:32:54.154Z,1.50
2019-01-11T21:35:22.604Z,1.30
2019-01-11T21:37:51.001Z,1.30
2019-01-11T21:40:20.509Z,1.30
2019-01-11T21:42:49.147Z,1.43
2019-01-11T21:45:17.880Z,1.20
2019-01-11T21:47:46.362Z,1.50
2019-01-11T21:50:16.769Z,1.43
2019-01-11T21:52:45.172Z,1.63
2019-01-11T21:55:14.270Z,1.70
2019-01-11T21:57:43.084Z,1.60
2019-01-11T22:00:14.951Z,1.20
2019-01-11T22:02:44.971Z,1.40
2019-01-11T22:05:13.448Z,2.07
2019-01-11T22:07:41.850Z,2.07
2019-01-11T22:10:13.514Z,1.40
2019-01-11T22:12:41.899Z,1.00
2019-01-11T22:15:13.332Z,1.20
2019-01-11T22:17:41.719Z,1.40
2019-01-11T22:20:13.076Z,1.77
2019-01-11T22:22:41.451Z,1.40
2019-01-11T22:25:11.366Z,1.37
2019-01-11T22:27:39.763Z,1.20
2019-01-11T22:30:16.827Z,1.20
2019-01-11T22:32:45.218Z,1.00
2019-01-11T22:35:13.590Z,1.00
2019-01-11T22:37:41.998Z,1.27
2019-01-11T22:40:15.788Z,1.50
2019-01-11T22:42:44.219Z,1.13
2019-01-11T22:45:14.265Z,1.07
2019-01-11T22:47:42.714Z,1.43
2019-01-11T22:50:13.160Z,1.43
2019-01-11T22:52:41.550Z,1.00
2019-01-11T22:55:11.893Z,1.10
2019-01-11T22:57:40.429Z,1.03
2019-01-11T23:00:30.462Z,0.70
2019-01-11T23:02:59.311Z,1.23
2019-01-11T23:05:27.707Z,1.30
2019-01-11T23:07:57.155Z,1.20
2019-01-11T23:10:40.743Z,1.90
2019-01-11T23:13:10.118Z,1.80
2019-01-11T23:15:38.570Z,1.73
2019-01-11T23:18:06.976Z,1.53
2019-01-11T23:20:35.354Z,1.33
2019-01-11T23:23:03.763Z,1.20
2019-01-11T23:25:32.171Z,1.77
2019-01-11T23:28:00.568Z,1.67
2019-01-11T23:30:28.976Z,1.30
2019-01-11T23:32:57.343Z,1.43
2019-01-11T23:35:25.735Z,1.50
2019-01-11T23:37:54.108Z,1.27
2019-01-11T23:40:22.515Z,1.20
2019-01-11T23:42:50.895Z,1.40
2019-01-11T23:45:19.287Z,1.37
2019-01-11T23:47:47.689Z,1.30
2019-01-11T23:50:16.176Z,1.17
2019-01-11T23:52:44.554Z,1.17
2019-01-11T23:55:12.934Z,1.83
2019-01-11T23:57:41.329Z,1.47
